Portada
METAR-TAF:

METAR-TAF

Aeropuertos :

Guilin, China

latitud: 25-20N, longitud: 110-18E, altitud: 166 m

Observación

El informe se hizo hace 48 minutos, a las 04:00 UTC
Viento 4 kt con dirección variable
Temperatura 35°C
Humedad 60%
Presión 1005 hPa
Visibilidad 10 km o más
Escasas nubes a una altura de 3000 ft, Cumulus congestus.

METAR: ZGKL 260400Z VRB02MPS 9999 FEW030TCU 35/26 Q1005 NOSIG

Hora: 12:48 (04:48 UTC)

Pronóstico

El informe se hizo hace 9 horas y 36 minutos, a las 19:12 UTC
Pronóstico válido del 26 a las 00 UTC al 26 a las 24 UTC
Viento 6 kt del sur
Visibilidad 10 km o más
sin nubes por debajo de 1500 m y sin presencia de cumulonimbus.

TAF: ZGKL 251912Z 2600/2624 18003MPS CAVOK TX36/2608Z TN25/2622Z

Observaciones y pronósticos meteorológicos de más de 4000 aeropuertos (mensajes METAR y TAF).

Los puntos amarillos y rojos representan las estaciones disponibles.

Ponga el ratón en el punto deseado para ver el nombre de la estación.

Haga clic para ver las observaciones y los pronósticos meteorológicos.

Para cambiar el mapa : haga clic en los botones verdes con una cruz de color negro para hacer un zoom, en el botón verde con un guión para alejar o en las flechas verdes para mapas adyacentes.


METAR-TAF: